sensor_id;sensor_type;location;lat;lon;timestamp;temperature;humidity
12977;DHT22;6553;48.412;9.514;2023-04-24T00:00:54;19.20;55.30
12977;DHT22;6553;48.412;9.514;2023-04-24T00:03:23;19.20;55.40
12977;DHT22;6553;48.412;9.514;2023-04-24T00:05:49;19.20;55.30
12977;DHT22;6553;48.412;9.514;2023-04-24T00:08:15;19.20;55.40
12977;DHT22;6553;48.412;9.514;2023-04-24T00:10:41;19.20;55.30
12977;DHT22;6553;48.412;9.514;2023-04-24T00:13:07;19.20;55.30
12977;DHT22;6553;48.412;9.514;2023-04-24T00:15:33;19.20;55.30
12977;DHT22;6553;48.412;9.514;2023-04-24T00:17:58;19.20;55.30
12977;DHT22;6553;48.412;9.514;2023-04-24T00:20:26;19.20;55.40
12977;DHT22;6553;48.412;9.514;2023-04-24T00:22:55;19.20;55.30
12977;DHT22;6553;48.412;9.514;2023-04-24T00:25:21;19.20;55.30
12977;DHT22;6553;48.412;9.514;2023-04-24T00:27:47;19.20;55.40
12977;DHT22;6553;48.412;9.514;2023-04-24T00:30:13;19.20;55.30
12977;DHT22;6553;48.412;9.514;2023-04-24T00:32:38;19.20;55.30
12977;DHT22;6553;48.412;9.514;2023-04-24T00:35:05;19.20;55.40
12977;DHT22;6553;48.412;9.514;2023-04-24T00:37:31;19.20;55.40
12977;DHT22;6553;48.412;9.514;2023-04-24T00:39:57;19.20;55.40
12977;DHT22;6553;48.412;9.514;2023-04-24T00:42:23;19.20;55.30
12977;DHT22;6553;48.412;9.514;2023-04-24T00:44:50;19.20;55.30
12977;DHT22;6553;48.412;9.514;2023-04-24T00:47:16;19.20;55.40
12977;DHT22;6553;48.412;9.514;2023-04-24T00:49:44;19.20;55.40
12977;DHT22;6553;48.412;9.514;2023-04-24T00:52:10;19.20;55.30
12977;DHT22;6553;48.412;9.514;2023-04-24T00:54:36;19.20;55.40
12977;DHT22;6553;48.412;9.514;2023-04-24T00:57:05;19.20;55.40
12977;DHT22;6553;48.412;9.514;2023-04-24T00:59:31;19.20;55.40
12977;DHT22;6553;48.412;9.514;2023-04-24T01:01:58;19.20;55.40
12977;DHT22;6553;48.412;9.514;2023-04-24T01:04:24;19.10;55.30
12977;DHT22;6553;48.412;9.514;2023-04-24T01:06:51;19.20;55.40
12977;DHT22;6553;48.412;9.514;2023-04-24T01:09:18;19.10;55.30
12977;DHT22;6553;48.412;9.514;2023-04-24T01:11:44;19.10;55.30
12977;DHT22;6553;48.412;9.514;2023-04-24T01:14:11;19.20;55.30
12977;DHT22;6553;48.412;9.514;2023-04-24T01:16:37;19.20;55.40
12977;DHT22;6553;48.412;9.514;2023-04-24T01:19:05;19.10;55.30
12977;DHT22;6553;48.412;9.514;2023-04-24T01:21:35;19.10;55.30
12977;DHT22;6553;48.412;9.514;2023-04-24T01:24:06;19.10;55.30
12977;DHT22;6553;48.412;9.514;2023-04-24T01:26:32;19.10;55.30
12977;DHT22;6553;48.412;9.514;2023-04-24T01:28:58;19.10;55.30
12977;DHT22;6553;48.412;9.514;2023-04-24T01:31:23;19.10;55.30
12977;DHT22;6553;48.412;9.514;2023-04-24T01:33:50;19.10;55.30
12977;DHT22;6553;48.412;9.514;2023-04-24T01:36:18;19.10;55.30
12977;DHT22;6553;48.412;9.514;2023-04-24T01:38:44;19.10;55.30
12977;DHT22;6553;48.412;9.514;2023-04-24T01:41:10;19.10;55.30
12977;DHT22;6553;48.412;9.514;2023-04-24T01:43:36;19.10;55.30
12977;DHT22;6553;48.412;9.514;2023-04-24T01:46:02;19.10;55.30
12977;DHT22;6553;48.412;9.514;2023-04-24T01:48:28;19.10;55.30
12977;DHT22;6553;48.412;9.514;2023-04-24T01:50:56;19.10;55.20
12977;DHT22;6553;48.412;9.514;2023-04-24T01:53:22;19.10;55.30
12977;DHT22;6553;48.412;9.514;2023-04-24T01:55:48;19.10;55.20
12977;DHT22;6553;48.412;9.514;2023-04-24T01:58:14;19.10;55.30
12977;DHT22;6553;48.412;9.514;2023-04-24T02:00:40;19.10;55.30
12977;DHT22;6553;48.412;9.514;2023-04-24T02:03:05;19.10;55.30
12977;DHT22;6553;48.412;9.514;2023-04-24T02:05:31;19.10;55.30
12977;DHT22;6553;48.412;9.514;2023-04-24T02:07:57;19.10;55.30
12977;DHT22;6553;48.412;9.514;2023-04-24T02:10:22;19.10;55.30
12977;DHT22;6553;48.412;9.514;2023-04-24T02:12:48;19.10;55.30
12977;DHT22;6553;48.412;9.514;2023-04-24T02:15:14;19.10;55.30
12977;DHT22;6553;48.412;9.514;2023-04-24T02:17:40;19.10;55.30
12977;DHT22;6553;48.412;9.514;2023-04-24T02:20:06;19.10;55.30
12977;DHT22;6553;48.412;9.514;2023-04-24T02:22:32;19.10;55.30
12977;DHT22;6553;48.412;9.514;2023-04-24T02:25:01;19.10;55.30
12977;DHT22;6553;48.412;9.514;2023-04-24T02:27:27;19.10;55.30
12977;DHT22;6553;48.412;9.514;2023-04-24T02:29:52;19.10;55.30
12977;DHT22;6553;48.412;9.514;2023-04-24T02:32:18;19.10;55.30
12977;DHT22;6553;48.412;9.514;2023-04-24T02:34:44;19.10;55.20
12977;DHT22;6553;48.412;9.514;2023-04-24T02:37:11;19.10;55.20
12977;DHT22;6553;48.412;9.514;2023-04-24T02:39:37;19.10;55.30
12977;DHT22;6553;48.412;9.514;2023-04-24T02:42:03;19.10;55.30
12977;DHT22;6553;48.412;9.514;2023-04-24T02:44:29;19.10;55.30
12977;DHT22;6553;48.412;9.514;2023-04-24T02:46:55;19.10;55.30
12977;DHT22;6553;48.412;9.514;2023-04-24T02:49:22;19.10;55.30
12977;DHT22;6553;48.412;9.514;2023-04-24T02:51:48;19.00;55.20
12977;DHT22;6553;48.412;9.514;2023-04-24T02:54:13;19.00;55.20
12977;DHT22;6553;48.412;9.514;2023-04-24T02:56:39;19.00;55.20
12977;DHT22;6553;48.412;9.514;2023-04-24T02:59:07;19.00;55.20
12977;DHT22;6553;48.412;9.514;2023-04-24T03:01:34;19.00;55.20
12977;DHT22;6553;48.412;9.514;2023-04-24T03:04:00;19.00;55.20
12977;DHT22;6553;48.412;9.514;2023-04-24T03:06:26;19.00;55.20
12977;DHT22;6553;48.412;9.514;2023-04-24T03:08:52;19.10;55.30
12977;DHT22;6553;48.412;9.514;2023-04-24T03:11:18;19.00;55.20
12977;DHT22;6553;48.412;9.514;2023-04-24T03:13:45;19.10;55.30
12977;DHT22;6553;48.412;9.514;2023-04-24T03:16:10;19.10;55.30
12977;DHT22;6553;48.412;9.514;2023-04-24T03:18:36;19.10;55.30
12977;DHT22;6553;48.412;9.514;2023-04-24T03:21:03;19.00;55.20
12977;DHT22;6553;48.412;9.514;2023-04-24T03:23:30;19.00;55.20
12977;DHT22;6553;48.412;9.514;2023-04-24T03:25:56;19.00;55.20
12977;DHT22;6553;48.412;9.514;2023-04-24T03:28:22;19.10;55.30
12977;DHT22;6553;48.412;9.514;2023-04-24T03:30:54;19.00;55.20
12977;DHT22;6553;48.412;9.514;2023-04-24T03:33:21;19.00;55.20
12977;DHT22;6553;48.412;9.514;2023-04-24T03:35:59;19.00;55.20
12977;DHT22;6553;48.412;9.514;2023-04-24T03:38:26;19.00;55.20
12977;DHT22;6553;48.412;9.514;2023-04-24T03:41:11;19.00;55.20
12977;DHT22;6553;48.412;9.514;2023-04-24T03:43:47;19.00;55.20
12977;DHT22;6553;48.412;9.514;2023-04-24T03:46:14;19.00;55.20
12977;DHT22;6553;48.412;9.514;2023-04-24T03:48:45;19.00;55.20
12977;DHT22;6553;48.412;9.514;2023-04-24T03:51:11;19.00;55.20
12977;DHT22;6553;48.412;9.514;2023-04-24T03:53:41;19.00;55.20
12977;DHT22;6553;48.412;9.514;2023-04-24T03:56:08;19.00;55.20
12977;DHT22;6553;48.412;9.514;2023-04-24T03:58:36;19.00;55.20
12977;DHT22;6553;48.412;9.514;2023-04-24T04:01:02;19.00;55.20
12977;DHT22;6553;48.412;9.514;2023-04-24T04:03:57;19.00;55.20
12977;DHT22;6553;48.412;9.514;2023-04-24T04:06:24;19.00;55.20
12977;DHT22;6553;48.412;9.514;2023-04-24T04:08:53;19.00;55.20
12977;DHT22;6553;48.412;9.514;2023-04-24T04:11:18;19.00;55.20
12977;DHT22;6553;48.412;9.514;2023-04-24T04:13:45;19.00;55.20
12977;DHT22;6553;48.412;9.514;2023-04-24T04:16:13;19.00;55.20
12977;DHT22;6553;48.412;9.514;2023-04-24T04:18:43;19.00;55.20
12977;DHT22;6553;48.412;9.514;2023-04-24T04:21:09;19.00;55.20
12977;DHT22;6553;48.412;9.514;2023-04-24T04:23:35;19.00;55.20
12977;DHT22;6553;48.412;9.514;2023-04-24T04:26:11;19.00;55.20
12977;DHT22;6553;48.412;9.514;2023-04-24T04:28:56;19.00;55.20
12977;DHT22;6553;48.412;9.514;2023-04-24T04:31:22;19.00;55.20
12977;DHT22;6553;48.412;9.514;2023-04-24T04:33:48;19.00;55.20
12977;DHT22;6553;48.412;9.514;2023-04-24T04:36:14;19.00;55.20
12977;DHT22;6553;48.412;9.514;2023-04-24T04:38:45;19.00;55.20
12977;DHT22;6553;48.412;9.514;2023-04-24T04:41:22;19.00;55.20
12977;DHT22;6553;48.412;9.514;2023-04-24T04:43:49;19.00;55.20
12977;DHT22;6553;48.412;9.514;2023-04-24T04:46:15;19.00;55.20
12977;DHT22;6553;48.412;9.514;2023-04-24T04:48:58;19.00;55.20
12977;DHT22;6553;48.412;9.514;2023-04-24T04:51:25;19.00;55.20
12977;DHT22;6553;48.412;9.514;2023-04-24T04:53:51;19.00;55.20
12977;DHT22;6553;48.412;9.514;2023-04-24T04:56:16;19.00;55.20
12977;DHT22;6553;48.412;9.514;2023-04-24T04:58:45;19.00;55.20
12977;DHT22;6553;48.412;9.514;2023-04-24T05:01:13;19.00;55.20
12977;DHT22;6553;48.412;9.514;2023-04-24T05:03:42;19.00;55.20
12977;DHT22;6553;48.412;9.514;2023-04-24T05:06:11;19.00;55.20
12977;DHT22;6553;48.412;9.514;2023-04-24T05:08:38;18.90;55.10
12977;DHT22;6553;48.412;9.514;2023-04-24T05:11:08;19.00;55.20
12977;DHT22;6553;48.412;9.514;2023-04-24T05:13:34;19.00;55.20
12977;DHT22;6553;48.412;9.514;2023-04-24T05:16:01;19.00;55.20
12977;DHT22;6553;48.412;9.514;2023-04-24T05:18:29;19.00;55.20
12977;DHT22;6553;48.412;9.514;2023-04-24T05:20:55;19.00;55.20
12977;DHT22;6553;48.412;9.514;2023-04-24T05:23:21;19.00;55.20
12977;DHT22;6553;48.412;9.514;2023-04-24T05:25:50;19.00;55.20
12977;DHT22;6553;48.412;9.514;2023-04-24T05:28:16;19.00;55.80
12977;DHT22;6553;48.412;9.514;2023-04-24T05:30:47;18.90;55.10
12977;DHT22;6553;48.412;9.514;2023-04-24T05:33:14;19.00;55.20
12977;DHT22;6553;48.412;9.514;2023-04-24T05:35:40;19.00;55.20
12977;DHT22;6553;48.412;9.514;2023-04-24T05:38:12;19.00;55.20
12977;DHT22;6553;48.412;9.514;2023-04-24T05:40:39;18.90;55.10
12977;DHT22;6553;48.412;9.514;2023-04-24T05:43:05;18.90;55.10
12977;DHT22;6553;48.412;9.514;2023-04-24T05:45:31;19.00;55.20
12977;DHT22;6553;48.412;9.514;2023-04-24T05:47:57;18.90;55.10
12977;DHT22;6553;48.412;9.514;2023-04-24T05:50:23;18.90;55.10
12977;DHT22;6553;48.412;9.514;2023-04-24T05:52:48;18.90;55.10
12977;DHT22;6553;48.412;9.514;2023-04-24T05:55:24;18.90;55.10
12977;DHT22;6553;48.412;9.514;2023-04-24T05:57:52;18.90;55.10
12977;DHT22;6553;48.412;9.514;2023-04-24T06:00:18;18.90;55.10
12977;DHT22;6553;48.412;9.514;2023-04-24T06:02:57;18.90;55.10
12977;DHT22;6553;48.412;9.514;2023-04-24T06:05:23;18.90;55.10
12977;DHT22;6553;48.412;9.514;2023-04-24T06:07:52;18.90;55.10
12977;DHT22;6553;48.412;9.514;2023-04-24T06:10:21;18.90;55.10
12977;DHT22;6553;48.412;9.514;2023-04-24T06:12:46;18.90;55.10
12977;DHT22;6553;48.412;9.514;2023-04-24T06:15:16;18.90;55.10
12977;DHT22;6553;48.412;9.514;2023-04-24T06:17:51;18.90;55.10
12977;DHT22;6553;48.412;9.514;2023-04-24T06:20:18;18.90;55.10
12977;DHT22;6553;48.412;9.514;2023-04-24T06:22:44;18.90;55.10
12977;DHT22;6553;48.412;9.514;2023-04-24T06:25:10;18.90;55.10
12977;DHT22;6553;48.412;9.514;2023-04-24T06:27:36;18.90;55.20
12977;DHT22;6553;48.412;9.514;2023-04-24T06:30:02;18.90;55.10
12977;DHT22;6553;48.412;9.514;2023-04-24T06:32:28;18.90;55.10
12977;DHT22;6553;48.412;9.514;2023-04-24T06:34:54;18.90;55.10
12977;DHT22;6553;48.412;9.514;2023-04-24T06:37:20;19.00;55.20
12977;DHT22;6553;48.412;9.514;2023-04-24T06:39:46;18.90;55.10
12977;DHT22;6553;48.412;9.514;2023-04-24T06:42:12;19.00;55.20
12977;DHT22;6553;48.412;9.514;2023-04-24T06:44:38;19.00;55.20
12977;DHT22;6553;48.412;9.514;2023-04-24T06:47:12;19.00;55.20
12977;DHT22;6553;48.412;9.514;2023-04-24T06:49:39;19.00;55.20
12977;DHT22;6553;48.412;9.514;2023-04-24T06:52:05;18.90;55.10
12977;DHT22;6553;48.412;9.514;2023-04-24T06:54:32;18.90;55.10
12977;DHT22;6553;48.412;9.514;2023-04-24T06:56:59;19.00;55.20
12977;DHT22;6553;48.412;9.514;2023-04-24T06:59:26;19.00;55.20
12977;DHT22;6553;48.412;9.514;2023-04-24T07:01:53;19.00;55.10
12977;DHT22;6553;48.412;9.514;2023-04-24T07:04:18;19.00;55.10
12977;DHT22;6553;48.412;9.514;2023-04-24T07:06:48;19.00;55.00
12977;DHT22;6553;48.412;9.514;2023-04-24T07:09:17;19.10;55.00
12977;DHT22;6553;48.412;9.514;2023-04-24T07:11:44;19.10;55.00
12977;DHT22;6553;48.412;9.514;2023-04-24T07:14:11;19.20;55.50
12977;DHT22;6553;48.412;9.514;2023-04-24T07:16:36;19.20;54.90
12977;DHT22;6553;48.412;9.514;2023-04-24T07:19:02;19.20;54.90
12977;DHT22;6553;48.412;9.514;2023-04-24T07:21:28;19.20;54.90
12977;DHT22;6553;48.412;9.514;2023-04-24T07:23:53;19.30;54.90
12977;DHT22;6553;48.412;9.514;2023-04-24T07:26:20;19.20;54.90
12977;DHT22;6553;48.412;9.514;2023-04-24T07:28:46;19.20;55.00
12977;DHT22;6553;48.412;9.514;2023-04-24T07:31:12;19.20;54.90
12977;DHT22;6553;48.412;9.514;2023-04-24T07:33:38;19.20;55.00
12977;DHT22;6553;48.412;9.514;2023-04-24T07:36:04;19.20;55.00
12977;DHT22;6553;48.412;9.514;2023-04-24T07:38:30;19.20;55.00
12977;DHT22;6553;48.412;9.514;2023-04-24T07:40:56;19.10;54.90
12977;DHT22;6553;48.412;9.514;2023-04-24T07:43:22;19.20;55.00
12977;DHT22;6553;48.412;9.514;2023-04-24T07:45:50;19.10;55.00
12977;DHT22;6553;48.412;9.514;2023-04-24T07:48:16;19.10;54.90
12977;DHT22;6553;48.412;9.514;2023-04-24T07:50:44;19.10;54.90
12977;DHT22;6553;48.412;9.514;2023-04-24T07:53:11;19.10;54.90
12977;DHT22;6553;48.412;9.514;2023-04-24T07:55:36;19.10;54.90
12977;DHT22;6553;48.412;9.514;2023-04-24T07:58:03;19.10;54.90
12977;DHT22;6553;48.412;9.514;2023-04-24T08:00:29;19.10;55.00
12977;DHT22;6553;48.412;9.514;2023-04-24T08:02:55;19.10;54.90
12977;DHT22;6553;48.412;9.514;2023-04-24T08:05:21;19.10;55.00
12977;DHT22;6553;48.412;9.514;2023-04-24T08:07:46;19.10;55.00
12977;DHT22;6553;48.412;9.514;2023-04-24T08:10:14;19.10;55.10
12977;DHT22;6553;48.412;9.514;2023-04-24T08:12:41;19.10;55.00
12977;DHT22;6553;48.412;9.514;2023-04-24T08:15:07;19.10;55.00
12977;DHT22;6553;48.412;9.514;2023-04-24T08:17:34;19.10;55.00
12977;DHT22;6553;48.412;9.514;2023-04-24T08:20:02;19.10;55.00
12977;DHT22;6553;48.412;9.514;2023-04-24T08:22:30;19.10;55.00
12977;DHT22;6553;48.412;9.514;2023-04-24T08:24:56;19.10;54.90
12977;DHT22;6553;48.412;9.514;2023-04-24T08:27:24;19.10;54.90
12977;DHT22;6553;48.412;9.514;2023-04-24T08:29:52;19.10;54.90
12977;DHT22;6553;48.412;9.514;2023-04-24T08:32:18;19.10;55.40
12977;DHT22;6553;48.412;9.514;2023-04-24T08:34:44;19.10;54.80
12977;DHT22;6553;48.412;9.514;2023-04-24T08:37:10;19.10;54.80
12977;DHT22;6553;48.412;9.514;2023-04-24T08:39:36;19.10;54.80
12977;DHT22;6553;48.412;9.514;2023-04-24T08:42:04;19.10;54.80
12977;DHT22;6553;48.412;9.514;2023-04-24T08:44:34;19.10;55.40
12977;DHT22;6553;48.412;9.514;2023-04-24T08:47:02;19.10;54.80
12977;DHT22;6553;48.412;9.514;2023-04-24T08:49:29;19.10;54.80
12977;DHT22;6553;48.412;9.514;2023-04-24T08:51:55;19.10;54.80
12977;DHT22;6553;48.412;9.514;2023-04-24T08:54:21;19.10;54.80
12977;DHT22;6553;48.412;9.514;2023-04-24T08:56:48;19.10;54.80
12977;DHT22;6553;48.412;9.514;2023-04-24T08:59:15;19.20;55.00
12977;DHT22;6553;48.412;9.514;2023-04-24T09:01:41;19.20;54.80
12977;DHT22;6553;48.412;9.514;2023-04-24T09:04:10;19.10;54.70
12977;DHT22;6553;48.412;9.514;2023-04-24T09:06:39;19.20;54.80
12977;DHT22;6553;48.412;9.514;2023-04-24T09:09:05;19.20;54.80
12977;DHT22;6553;48.412;9.514;2023-04-24T09:11:31;19.20;54.70
12977;DHT22;6553;48.412;9.514;2023-04-24T09:14:01;19.20;54.70
12977;DHT22;6553;48.412;9.514;2023-04-24T09:16:27;19.20;54.70
12977;DHT22;6553;48.412;9.514;2023-04-24T09:18:53;19.20;54.70
12977;DHT22;6553;48.412;9.514;2023-04-24T09:21:21;19.20;54.60
12977;DHT22;6553;48.412;9.514;2023-04-24T09:23:58;19.20;54.70
12977;DHT22;6553;48.412;9.514;2023-04-24T09:26:29;19.20;54.60
12977;DHT22;6553;48.412;9.514;2023-04-24T09:28:57;19.20;54.70
12977;DHT22;6553;48.412;9.514;2023-04-24T09:31:23;19.10;54.60
12977;DHT22;6553;48.412;9.514;2023-04-24T09:34:01;19.20;54.60
12977;DHT22;6553;48.412;9.514;2023-04-24T09:36:34;19.20;54.70
12977;DHT22;6553;48.412;9.514;2023-04-24T09:39:14;19.20;54.70
12977;DHT22;6553;48.412;9.514;2023-04-24T09:41:49;19.20;54.50
12977;DHT22;6553;48.412;9.514;2023-04-24T09:44:21;19.20;54.60
12977;DHT22;6553;48.412;9.514;2023-04-24T09:46:52;19.20;54.60
12977;DHT22;6553;48.412;9.514;2023-04-24T09:49:27;19.20;54.60
12977;DHT22;6553;48.412;9.514;2023-04-24T09:52:08;19.20;54.60
12977;DHT22;6553;48.412;9.514;2023-04-24T09:54:36;19.20;54.60
12977;DHT22;6553;48.412;9.514;2023-04-24T09:57:03;19.20;54.60
12977;DHT22;6553;48.412;9.514;2023-04-24T09:59:29;19.20;54.60
12977;DHT22;6553;48.412;9.514;2023-04-24T10:01:55;19.20;54.50
12977;DHT22;6553;48.412;9.514;2023-04-24T10:04:24;19.20;54.60
12977;DHT22;6553;48.412;9.514;2023-04-24T10:06:54;19.20;54.50
12977;DHT22;6553;48.412;9.514;2023-04-24T10:09:23;19.20;54.60
12977;DHT22;6553;48.412;9.514;2023-04-24T10:11:52;19.20;54.60
12977;DHT22;6553;48.412;9.514;2023-04-24T10:14:24;19.20;54.70
12977;DHT22;6553;48.412;9.514;2023-04-24T10:16:53;19.20;55.30
12977;DHT22;6553;48.412;9.514;2023-04-24T10:19:20;19.20;55.00
12977;DHT22;6553;48.412;9.514;2023-04-24T10:21:47;19.20;54.70
12977;DHT22;6553;48.412;9.514;2023-04-24T10:24:17;19.20;54.60
12977;DHT22;6553;48.412;9.514;2023-04-24T10:26:45;19.20;54.80
12977;DHT22;6553;48.412;9.514;2023-04-24T10:29:13;19.20;54.70
12977;DHT22;6553;48.412;9.514;2023-04-24T10:31:40;19.20;54.80
12977;DHT22;6553;48.412;9.514;2023-04-24T10:34:08;19.20;54.60
12977;DHT22;6553;48.412;9.514;2023-04-24T10:36:39;19.20;54.60
12977;DHT22;6553;48.412;9.514;2023-04-24T10:39:20;19.20;54.70
12977;DHT22;6553;48.412;9.514;2023-04-24T10:41:48;19.20;54.60
12977;DHT22;6553;48.412;9.514;2023-04-24T10:44:15;19.20;54.50
12977;DHT22;6553;48.412;9.514;2023-04-24T10:46:53;19.20;54.50
12977;DHT22;6553;48.412;9.514;2023-04-24T10:49:31;19.20;54.40
12977;DHT22;6553;48.412;9.514;2023-04-24T10:52:03;19.20;54.40
12977;DHT22;6553;48.412;9.514;2023-04-24T10:54:40;19.20;54.30
12977;DHT22;6553;48.412;9.514;2023-04-24T10:59:46;19.20;54.30
12977;DHT22;6553;48.412;9.514;2023-04-24T11:02:18;19.30;54.30
12977;DHT22;6553;48.412;9.514;2023-04-24T11:05:03;19.20;54.20
12977;DHT22;6553;48.412;9.514;2023-04-24T11:07:29;19.30;54.40
12977;DHT22;6553;48.412;9.514;2023-04-24T11:09:59;19.30;54.40
12977;DHT22;6553;48.412;9.514;2023-04-24T11:12:26;19.30;54.30
12977;DHT22;6553;48.412;9.514;2023-04-24T11:17:32;19.30;54.10
12977;DHT22;6553;48.412;9.514;2023-04-24T11:20:10;19.30;54.20
12977;DHT22;6553;48.412;9.514;2023-04-24T11:22:39;19.30;54.20
12977;DHT22;6553;48.412;9.514;2023-04-24T11:25:06;19.30;54.10
12977;DHT22;6553;48.412;9.514;2023-04-24T11:27:40;19.30;54.20
12977;DHT22;6553;48.412;9.514;2023-04-24T11:30:08;19.30;54.20
12977;DHT22;6553;48.412;9.514;2023-04-24T11:32:36;19.20;54.20
12977;DHT22;6553;48.412;9.514;2023-04-24T11:35:16;19.30;54.20
12977;DHT22;6553;48.412;9.514;2023-04-24T11:37:52;19.20;54.10
12977;DHT22;6553;48.412;9.514;2023-04-24T11:40:20;19.20;54.30
12977;DHT22;6553;48.412;9.514;2023-04-24T11:42:49;19.20;54.20
12977;DHT22;6553;48.412;9.514;2023-04-24T11:45:20;19.20;54.10
12977;DHT22;6553;48.412;9.514;2023-04-24T11:47:47;19.20;54.20
12977;DHT22;6553;48.412;9.514;2023-04-24T11:50:18;19.20;53.90
12977;DHT22;6553;48.412;9.514;2023-04-24T11:52:49;19.20;53.80
12977;DHT22;6553;48.412;9.514;2023-04-24T11:57:45;19.20;53.80
12977;DHT22;6553;48.412;9.514;2023-04-24T12:00:39;19.20;53.80
12977;DHT22;6553;48.412;9.514;2023-04-24T12:03:05;19.20;53.70
12977;DHT22;6553;48.412;9.514;2023-04-24T12:05:31;19.20;53.60
12977;DHT22;6553;48.412;9.514;2023-04-24T12:07:57;19.20;53.80
12977;DHT22;6553;48.412;9.514;2023-04-24T12:10:24;19.20;53.80
12977;DHT22;6553;48.412;9.514;2023-04-24T12:12:53;19.20;53.80
12977;DHT22;6553;48.412;9.514;2023-04-24T12:15:21;19.20;53.90
12977;DHT22;6553;48.412;9.514;2023-04-24T12:17:47;19.20;53.80
12977;DHT22;6553;48.412;9.514;2023-04-24T12:20:14;19.20;53.80
12977;DHT22;6553;48.412;9.514;2023-04-24T12:25:11;19.20;53.80
12977;DHT22;6553;48.412;9.514;2023-04-24T12:27:37;19.20;53.80
12977;DHT22;6553;48.412;9.514;2023-04-24T12:30:05;19.20;53.70
12977;DHT22;6553;48.412;9.514;2023-04-24T12:32:40;19.20;53.80
12977;DHT22;6553;48.412;9.514;2023-04-24T12:35:07;19.20;53.70
12977;DHT22;6553;48.412;9.514;2023-04-24T12:37:33;19.20;53.80
12977;DHT22;6553;48.412;9.514;2023-04-24T12:40:05;19.20;53.80
12977;DHT22;6553;48.412;9.514;2023-04-24T12:42:42;19.20;53.80
12977;DHT22;6553;48.412;9.514;2023-04-24T12:45:09;19.20;53.80
12977;DHT22;6553;48.412;9.514;2023-04-24T12:47:38;19.10;53.70
12977;DHT22;6553;48.412;9.514;2023-04-24T12:50:07;19.20;53.80
12977;DHT22;6553;48.412;9.514;2023-04-24T12:52:33;19.20;53.80
12977;DHT22;6553;48.412;9.514;2023-04-24T12:55:00;19.20;53.80
12977;DHT22;6553;48.412;9.514;2023-04-24T12:57:28;19.20;53.80
12977;DHT22;6553;48.412;9.514;2023-04-24T12:59:56;19.20;53.80
12977;DHT22;6553;48.412;9.514;2023-04-24T13:02:25;19.20;53.70
12977;DHT22;6553;48.412;9.514;2023-04-24T13:04:57;19.20;53.80
12977;DHT22;6553;48.412;9.514;2023-04-24T13:07:23;19.20;53.80
12977;DHT22;6553;48.412;9.514;2023-04-24T13:09:51;19.10;53.70
12977;DHT22;6553;48.412;9.514;2023-04-24T13:12:17;19.10;53.80
12977;DHT22;6553;48.412;9.514;2023-04-24T13:14:43;19.20;53.80
12977;DHT22;6553;48.412;9.514;2023-04-24T13:17:09;19.20;53.70
12977;DHT22;6553;48.412;9.514;2023-04-24T13:19:40;19.20;53.80
12977;DHT22;6553;48.412;9.514;2023-04-24T13:22:10;19.20;53.80
12977;DHT22;6553;48.412;9.514;2023-04-24T13:24:37;19.20;53.60
12977;DHT22;6553;48.412;9.514;2023-04-24T13:27:03;19.20;53.60
12977;DHT22;6553;48.412;9.514;2023-04-24T13:29:29;19.20;54.10
12977;DHT22;6553;48.412;9.514;2023-04-24T13:31:55;19.20;53.60
12977;DHT22;6553;48.412;9.514;2023-04-24T13:34:25;19.20;53.40
12977;DHT22;6553;48.412;9.514;2023-04-24T13:36:55;19.20;53.40
12977;DHT22;6553;48.412;9.514;2023-04-24T13:39:23;19.20;53.40
12977;DHT22;6553;48.412;9.514;2023-04-24T13:41:50;19.20;53.50
12977;DHT22;6553;48.412;9.514;2023-04-24T13:44:17;19.20;53.20
12977;DHT22;6553;48.412;9.514;2023-04-24T13:46:46;19.20;53.30
12977;DHT22;6553;48.412;9.514;2023-04-24T13:49:14;19.20;53.40
12977;DHT22;6553;48.412;9.514;2023-04-24T13:51:42;19.20;53.50
12977;DHT22;6553;48.412;9.514;2023-04-24T13:54:08;19.20;53.20
12977;DHT22;6553;48.412;9.514;2023-04-24T13:56:34;19.20;53.20
12977;DHT22;6553;48.412;9.514;2023-04-24T13:59:00;19.20;53.40
12977;DHT22;6553;48.412;9.514;2023-04-24T14:01:26;19.20;53.40
12977;DHT22;6553;48.412;9.514;2023-04-24T14:03:53;19.20;53.10
12977;DHT22;6553;48.412;9.514;2023-04-24T14:06:19;19.20;53.10
12977;DHT22;6553;48.412;9.514;2023-04-24T14:08:46;19.10;52.90
12977;DHT22;6553;48.412;9.514;2023-04-24T14:11:13;19.10;52.90
12977;DHT22;6553;48.412;9.514;2023-04-24T14:13:40;19.20;52.80
12977;DHT22;6553;48.412;9.514;2023-04-24T14:16:07;19.20;52.90
12977;DHT22;6553;48.412;9.514;2023-04-24T14:18:33;19.10;52.70
12977;DHT22;6553;48.412;9.514;2023-04-24T14:20:59;19.10;52.80
12977;DHT22;6553;48.412;9.514;2023-04-24T14:23:26;19.10;52.70
12977;DHT22;6553;48.412;9.514;2023-04-24T14:25:52;19.10;52.70
12977;DHT22;6553;48.412;9.514;2023-04-24T14:28:21;19.10;52.70
12977;DHT22;6553;48.412;9.514;2023-04-24T14:30:47;19.10;52.70
12977;DHT22;6553;48.412;9.514;2023-04-24T14:33:14;19.20;53.00
12977;DHT22;6553;48.412;9.514;2023-04-24T14:35:40;19.20;52.90
12977;DHT22;6553;48.412;9.514;2023-04-24T14:38:10;19.20;53.00
12977;DHT22;6553;48.412;9.514;2023-04-24T14:40:36;19.10;52.90
12977;DHT22;6553;48.412;9.514;2023-04-24T14:43:03;19.10;52.70
12977;DHT22;6553;48.412;9.514;2023-04-24T14:45:29;19.10;52.70
12977;DHT22;6553;48.412;9.514;2023-04-24T14:47:55;19.10;52.70
12977;DHT22;6553;48.412;9.514;2023-04-24T14:50:22;19.10;52.70
12977;DHT22;6553;48.412;9.514;2023-04-24T14:52:48;19.10;52.70
12977;DHT22;6553;48.412;9.514;2023-04-24T14:55:13;19.10;52.60
12977;DHT22;6553;48.412;9.514;2023-04-24T14:57:40;19.10;52.60
12977;DHT22;6553;48.412;9.514;2023-04-24T15:00:06;19.10;52.60
12977;DHT22;6553;48.412;9.514;2023-04-24T15:02:35;19.10;52.40
12977;DHT22;6553;48.412;9.514;2023-04-24T15:05:05;19.10;52.50
12977;DHT22;6553;48.412;9.514;2023-04-24T15:07:32;19.10;52.50
12977;DHT22;6553;48.412;9.514;2023-04-24T15:09:58;19.10;52.40
12977;DHT22;6553;48.412;9.514;2023-04-24T15:12:24;19.10;52.50
12977;DHT22;6553;48.412;9.514;2023-04-24T15:14:50;19.10;52.60
12977;DHT22;6553;48.412;9.514;2023-04-24T15:17:16;19.10;52.50
12977;DHT22;6553;48.412;9.514;2023-04-24T15:19:41;19.10;52.60
12977;DHT22;6553;48.412;9.514;2023-04-24T15:22:07;19.10;52.60
12977;DHT22;6553;48.412;9.514;2023-04-24T15:24:33;19.10;52.60
12977;DHT22;6553;48.412;9.514;2023-04-24T15:26:59;19.10;52.70
12977;DHT22;6553;48.412;9.514;2023-04-24T15:29:27;19.10;52.70
12977;DHT22;6553;48.412;9.514;2023-04-24T15:31:53;19.10;52.70
12977;DHT22;6553;48.412;9.514;2023-04-24T15:34:19;19.10;52.60
12977;DHT22;6553;48.412;9.514;2023-04-24T15:36:45;19.10;52.70
12977;DHT22;6553;48.412;9.514;2023-04-24T15:39:11;19.10;52.60
12977;DHT22;6553;48.412;9.514;2023-04-24T15:41:37;19.10;52.70
12977;DHT22;6553;48.412;9.514;2023-04-24T15:44:02;19.10;52.60
12977;DHT22;6553;48.412;9.514;2023-04-24T15:46:28;19.10;52.70
12977;DHT22;6553;48.412;9.514;2023-04-24T15:48:54;19.10;52.70
12977;DHT22;6553;48.412;9.514;2023-04-24T15:51:20;19.10;52.70
12977;DHT22;6553;48.412;9.514;2023-04-24T15:53:46;19.10;52.70
12977;DHT22;6553;48.412;9.514;2023-04-24T15:56:12;19.10;52.60
12977;DHT22;6553;48.412;9.514;2023-04-24T15:58:38;19.10;52.70